createdAt,value
2018-04-13T00:00:37.646Z,9.27
2018-04-13T00:03:04.961Z,9.33
2018-04-13T00:05:39.042Z,8.80
2018-04-13T00:08:05.825Z,10.33
2018-04-13T00:10:32.558Z,18.50
2018-04-13T00:12:59.282Z,21.50
2018-04-13T00:15:29.706Z,22.20
2018-04-13T00:17:56.511Z,20.10
2018-04-13T00:20:23.342Z,19.00
2018-04-13T00:22:50.061Z,18.83
2018-04-13T00:25:17.917Z,21.73
2018-04-13T00:27:44.717Z,18.90
2018-04-13T00:30:11.543Z,18.53
2018-04-13T00:32:38.282Z,16.70
2018-04-13T00:35:09.602Z,17.80
2018-04-13T00:37:36.355Z,18.50
2018-04-13T00:40:03.002Z,18.60
2018-04-13T00:42:29.738Z,18.20
2018-04-13T00:45:00.481Z,16.77
2018-04-13T00:47:27.278Z,18.30
2018-04-13T00:49:53.983Z,15.23
2018-04-13T00:52:20.693Z,13.57
2018-04-13T00:54:48.410Z,12.23
2018-04-13T00:57:15.097Z,14.00
2018-04-13T00:59:41.809Z,14.03
2018-04-13T01:02:08.590Z,15.90
2018-04-13T01:04:36.427Z,11.57
2018-04-13T01:07:03.100Z,8.53
2018-04-13T01:09:29.746Z,7.80
2018-04-13T01:11:56.452Z,7.73
2018-04-13T01:14:24.310Z,7.70
2018-04-13T01:16:51.099Z,10.37
2018-04-13T01:19:17.817Z,9.93
2018-04-13T01:21:44.596Z,9.20
2018-04-13T01:24:14.873Z,9.03
2018-04-13T01:26:41.533Z,11.40
2018-04-13T01:29:08.266Z,14.60
2018-04-13T01:31:34.967Z,17.33
2018-04-13T01:34:01.560Z,17.63
2018-04-13T01:36:28.328Z,15.07
2018-04-13T01:38:55.082Z,15.53
2018-04-13T01:41:21.780Z,14.90
2018-04-13T01:43:48.497Z,15.00
2018-04-13T01:46:19.457Z,16.87
2018-04-13T01:48:46.097Z,14.53
2018-04-13T01:51:12.855Z,14.27
2018-04-13T01:53:39.519Z,17.53
2018-04-13T01:56:07.705Z,11.90
2018-04-13T01:58:34.493Z,13.03
2018-04-13T02:01:01.259Z,13.37
2018-04-13T02:03:27.961Z,13.53
2018-04-13T02:05:58.864Z,17.23
2018-04-13T02:08:25.569Z,16.63
2018-04-13T02:10:52.271Z,14.90
2018-04-13T02:13:18.893Z,15.73
2018-04-13T02:15:57.901Z,13.47
2018-04-13T02:18:24.439Z,14.63
2018-04-13T02:20:51.027Z,15.63
2018-04-13T02:23:17.736Z,22.23
2018-04-13T02:25:48.126Z,16.80
2018-04-13T02:28:14.641Z,13.10
2018-04-13T02:30:41.216Z,15.37
2018-04-13T02:33:07.913Z,14.20
2018-04-13T02:35:38.283Z,15.67
2018-04-13T02:38:04.901Z,16.30
2018-04-13T02:40:31.657Z,17.57
2018-04-13T02:42:58.302Z,17.27
2018-04-13T02:45:28.029Z,16.87
2018-04-13T02:47:54.763Z,17.20
2018-04-13T02:50:21.496Z,16.10
2018-04-13T02:52:48.046Z,16.33
2018-04-13T02:55:18.098Z,15.17
2018-04-13T02:57:44.842Z,15.37
2018-04-13T03:00:11.575Z,15.57
2018-04-13T03:02:38.296Z,15.17
2018-04-13T03:05:08.216Z,16.43
2018-04-13T03:07:35.033Z,16.47
2018-04-13T03:10:01.533Z,16.23
2018-04-13T03:12:28.171Z,15.93
2018-04-13T03:15:00.704Z,16.50
2018-04-13T03:17:27.409Z,17.57
2018-04-13T03:19:54.140Z,16.97
2018-04-13T03:22:20.881Z,16.50
2018-04-13T03:24:51.564Z,16.37
2018-04-13T03:27:18.277Z,16.27
2018-04-13T03:29:44.954Z,17.97
2018-04-13T03:32:11.794Z,17.73
2018-04-13T03:34:39.472Z,16.67
2018-04-13T03:37:06.181Z,16.60
2018-04-13T03:39:32.902Z,16.17
2018-04-13T03:41:59.702Z,17.80
2018-04-13T03:44:27.538Z,17.67
2018-04-13T03:46:54.292Z,17.90
2018-04-13T03:49:20.934Z,19.47
2018-04-13T03:51:47.506Z,19.83
2018-04-13T03:54:15.402Z,21.13
2018-04-13T03:56:41.961Z,21.67
2018-04-13T03:59:08.686Z,19.93
2018-04-13T04:01:35.401Z,17.87
2018-04-13T04:04:05.850Z,15.10
2018-04-13T04:06:32.453Z,16.40
2018-04-13T04:08:59.232Z,15.33
2018-04-13T04:11:25.817Z,15.60
2018-04-13T04:13:52.481Z,16.47
2018-04-13T04:16:19.114Z,16.03
2018-04-13T04:18:45.876Z,16.17
2018-04-13T04:21:24.317Z,18.43
2018-04-13T04:24:06.974Z,19.20
2018-04-13T04:26:49.474Z,20.07
2018-04-13T04:29:16.118Z,21.53
2018-04-13T04:31:42.796Z,21.70
2018-04-13T04:34:15.402Z,30.27
2018-04-13T04:36:42.053Z,34.47
2018-04-13T04:39:08.718Z,26.07
2018-04-13T04:41:35.425Z,23.50
2018-04-13T04:44:02.000Z,21.77
2018-04-13T04:46:28.682Z,21.00
2018-04-13T04:48:55.310Z,27.53
2018-04-13T04:51:21.970Z,24.53
2018-04-13T04:53:52.034Z,24.67
2018-04-13T04:56:18.671Z,17.33
2018-04-13T04:58:45.361Z,14.73
2018-04-13T05:01:12.053Z,13.50
2018-04-13T05:03:43.398Z,13.83
2018-04-13T05:06:10.192Z,13.47
2018-04-13T05:08:36.934Z,13.43
2018-04-13T05:11:03.562Z,17.37
2018-04-13T05:13:30.145Z,20.43
2018-04-13T05:15:57.337Z,20.37
2018-04-13T05:18:23.897Z,22.53
2018-04-13T05:20:50.654Z,24.47
2018-04-13T05:23:17.331Z,27.97
2018-04-13T05:25:50.689Z,34.70
2018-04-13T05:28:17.378Z,28.90
2018-04-13T05:30:44.089Z,26.07
2018-04-13T05:33:10.813Z,25.20
2018-04-13T05:35:40.730Z,26.90
2018-04-13T05:38:07.777Z,24.13
2018-04-13T05:40:34.424Z,26.30
2018-04-13T05:43:01.125Z,25.57
2018-04-13T05:45:32.553Z,25.60
2018-04-13T05:47:59.213Z,25.57
2018-04-13T05:50:25.865Z,25.43
2018-04-13T05:52:52.575Z,26.90
2018-04-13T05:55:23.759Z,25.07
2018-04-13T05:57:50.478Z,25.00
2018-04-13T06:00:17.190Z,27.07
2018-04-13T06:02:43.853Z,26.23
2018-04-13T06:05:13.893Z,27.60
2018-04-13T06:07:40.531Z,28.73
2018-04-13T06:10:07.250Z,30.50
2018-04-13T06:12:33.915Z,31.53
2018-04-13T06:15:07.710Z,29.73
2018-04-13T06:17:34.428Z,30.53
2018-04-13T06:20:01.045Z,32.00
2018-04-13T06:22:27.773Z,30.70
2018-04-13T06:24:58.414Z,31.87
2018-04-13T06:27:25.118Z,30.40
2018-04-13T06:29:51.710Z,29.80
2018-04-13T06:32:18.369Z,30.07
2018-04-13T06:34:46.199Z,32.10
2018-04-13T06:37:12.752Z,29.93
2018-04-13T06:39:40.015Z,30.60
2018-04-13T06:42:06.637Z,32.97
2018-04-13T06:44:33.453Z,30.47
2018-04-13T06:47:00.029Z,29.90
2018-04-13T06:49:26.576Z,28.67
2018-04-13T06:51:53.125Z,28.37
2018-04-13T06:54:31.453Z,28.97
2018-04-13T06:56:57.974Z,42.30
2018-04-13T06:59:24.614Z,32.63
2018-04-13T07:01:51.815Z,35.43
2018-04-13T07:04:18.484Z,31.53
2018-04-13T07:06:45.234Z,27.70
2018-04-13T07:09:11.908Z,27.90
2018-04-13T07:11:38.457Z,29.57
2018-04-13T07:14:08.315Z,29.90
2018-04-13T07:16:34.933Z,29.10
2018-04-13T07:19:01.544Z,29.70
2018-04-13T07:21:28.270Z,27.97
2018-04-13T07:23:59.377Z,25.60
2018-04-13T07:26:26.165Z,21.77
2018-04-13T07:28:52.870Z,22.07
2018-04-13T07:31:19.498Z,20.90
2018-04-13T07:33:51.768Z,18.40
2018-04-13T07:36:18.607Z,15.47
2018-04-13T07:38:45.064Z,14.97
2018-04-13T07:41:11.640Z,15.07
2018-04-13T07:43:41.906Z,13.83
2018-04-13T07:46:08.490Z,13.57
2018-04-13T07:48:35.127Z,15.27
2018-04-13T07:51:01.863Z,11.67
2018-04-13T07:53:29.501Z,12.43
2018-04-13T07:55:56.238Z,14.13
2018-04-13T07:58:22.962Z,12.07
2018-04-13T08:00:50.369Z,10.83
2018-04-13T08:03:23.638Z,11.60
2018-04-13T08:05:50.222Z,10.57
2018-04-13T08:08:16.785Z,11.10
2018-04-13T08:10:43.371Z,10.83
2018-04-13T08:13:17.766Z,11.20
2018-04-13T08:15:44.401Z,10.20
2018-04-13T08:18:11.040Z,10.07
2018-04-13T08:20:37.768Z,10.50
2018-04-13T08:23:15.024Z,9.10
2018-04-13T08:25:41.707Z,9.70
2018-04-13T08:28:08.330Z,9.20
2018-04-13T08:30:34.948Z,9.37
2018-04-13T08:33:02.749Z,9.30
2018-04-13T08:35:29.399Z,10.30
2018-04-13T08:37:55.931Z,8.97
2018-04-13T08:40:22.600Z,11.97
2018-04-13T08:42:49.367Z,9.77
2018-04-13T08:45:22.662Z,13.20
2018-04-13T08:47:49.382Z,8.67
2018-04-13T08:50:15.976Z,8.73
2018-04-13T08:52:42.517Z,11.30
2018-04-13T08:55:10.201Z,9.50
2018-04-13T08:57:36.953Z,9.87
2018-04-13T09:00:03.436Z,9.20
2018-04-13T09:02:29.983Z,8.63
2018-04-13T09:04:57.740Z,9.47
2018-04-13T09:07:24.365Z,7.77
2018-04-13T09:09:50.890Z,8.23
2018-04-13T09:12:18.038Z,8.27
2018-04-13T09:14:48.337Z,7.20
2018-04-13T09:17:14.989Z,6.97
2018-04-13T09:19:41.549Z,6.63
2018-04-13T09:22:08.151Z,6.43
2018-04-13T09:24:38.262Z,6.43
2018-04-13T09:27:04.727Z,7.40
2018-04-13T09:29:31.295Z,6.80
2018-04-13T09:31:57.785Z,5.73
2018-04-13T09:34:29.582Z,6.13
2018-04-13T09:36:56.309Z,4.83
2018-04-13T09:39:22.982Z,5.47
2018-04-13T09:41:50.113Z,6.00
2018-04-13T09:44:33.696Z,6.97
2018-04-13T09:47:00.355Z,6.50
2018-04-13T09:49:27.034Z,6.63
2018-04-13T09:51:53.735Z,6.77
2018-04-13T09:54:25.337Z,6.27
2018-04-13T09:56:52.334Z,6.70
2018-04-13T09:59:19.025Z,6.83
2018-04-13T10:01:45.678Z,7.53
2018-04-13T10:04:13.404Z,8.10
2018-04-13T10:06:39.969Z,7.27
2018-04-13T10:09:06.605Z,6.90
2018-04-13T10:11:33.228Z,7.30
2018-04-13T10:14:00.014Z,7.47
2018-04-13T10:16:26.618Z,8.13
2018-04-13T10:18:53.325Z,8.27
2018-04-13T10:21:19.894Z,7.73
2018-04-13T10:23:50.105Z,7.50
2018-04-13T10:26:20.580Z,7.10
2018-04-13T10:28:47.169Z,7.00
2018-04-13T10:31:13.825Z,6.73
2018-04-13T10:33:44.621Z,7.60
2018-04-13T10:36:11.313Z,6.87
2018-04-13T10:38:37.938Z,5.87
2018-04-13T10:41:04.544Z,5.63
2018-04-13T10:43:37.566Z,5.13
2018-04-13T10:46:04.287Z,5.70
2018-04-13T10:48:30.901Z,6.17
2018-04-13T10:50:57.517Z,5.30
2018-04-13T10:53:25.146Z,5.67
2018-04-13T10:55:51.694Z,5.10
2018-04-13T10:58:18.397Z,5.77
2018-04-13T11:00:45.110Z,4.83
2018-04-13T11:03:15.153Z,12.07
2018-04-13T11:05:41.895Z,4.93
2018-04-13T11:08:08.613Z,4.87
2018-04-13T11:10:35.245Z,47.17
2018-04-13T11:13:09.040Z,5.27
2018-04-13T11:15:35.776Z,4.33
2018-04-13T11:18:02.426Z,5.40
2018-04-13T11:20:29.127Z,4.97
2018-04-13T11:23:01.449Z,4.93
2018-04-13T11:25:27.982Z,5.30
2018-04-13T11:27:54.591Z,5.20
2018-04-13T11:30:21.186Z,4.83
2018-04-13T11:32:51.468Z,6.13
2018-04-13T11:35:18.071Z,4.90
2018-04-13T11:37:44.763Z,4.47
2018-04-13T11:40:12.027Z,4.67
2018-04-13T11:42:39.742Z,4.47
2018-04-13T11:45:06.350Z,4.60
2018-04-13T11:47:32.972Z,3.83
2018-04-13T11:49:59.542Z,4.60
2018-04-13T11:52:26.217Z,5.00
2018-04-13T11:54:52.973Z,4.37
2018-04-13T11:57:19.508Z,4.60
2018-04-13T11:59:46.213Z,3.90
2018-04-13T12:02:12.837Z,4.20
2018-04-13T12:04:43.854Z,4.00
2018-04-13T12:07:10.485Z,4.20
2018-04-13T12:09:37.158Z,4.13
2018-04-13T12:12:03.807Z,3.80
2018-04-13T12:14:40.613Z,4.20
2018-04-13T12:17:07.257Z,4.30
2018-04-13T12:19:33.933Z,4.17
2018-04-13T12:22:00.719Z,4.27
2018-04-13T12:24:30.899Z,4.03
2018-04-13T12:26:57.441Z,4.60
2018-04-13T12:29:24.017Z,4.43
2018-04-13T12:31:50.692Z,4.43
2018-04-13T12:34:27.908Z,4.30
2018-04-13T12:36:54.664Z,4.23
2018-04-13T12:39:21.370Z,4.93
2018-04-13T12:41:48.057Z,4.47
2018-04-13T12:44:24.866Z,4.50
2018-04-13T12:46:51.595Z,4.40
2018-04-13T12:49:18.097Z,4.40
2018-04-13T12:51:44.823Z,4.73
2018-04-13T12:54:17.129Z,4.90
2018-04-13T12:56:43.701Z,4.23
2018-04-13T12:59:10.310Z,4.10
2018-04-13T13:01:37.041Z,4.20
2018-04-13T13:04:06.776Z,4.23
2018-04-13T13:06:33.398Z,4.23
2018-04-13T13:08:59.945Z,4.73
2018-04-13T13:11:26.643Z,4.00
2018-04-13T13:13:57.279Z,4.10
2018-04-13T13:16:23.910Z,4.30
2018-04-13T13:18:50.572Z,4.40
2018-04-13T13:21:17.171Z,4.30
2018-04-13T13:23:54.020Z,4.23
2018-04-13T13:26:20.654Z,4.80
2018-04-13T13:28:47.286Z,4.97
2018-04-13T13:31:13.878Z,4.67
2018-04-13T13:33:54.032Z,4.17
2018-04-13T13:36:20.717Z,4.67
2018-04-13T13:38:47.327Z,4.93
2018-04-13T13:41:13.955Z,4.40
2018-04-13T13:43:40.838Z,5.00
2018-04-13T13:46:07.345Z,4.80
2018-04-13T13:48:34.026Z,4.73
2018-04-13T13:51:00.618Z,4.67
2018-04-13T13:53:31.193Z,4.43
2018-04-13T13:55:57.830Z,4.20
2018-04-13T13:58:24.453Z,4.43
2018-04-13T14:00:51.030Z,4.50
2018-04-13T14:03:18.657Z,4.60
2018-04-13T14:05:45.427Z,4.47
2018-04-13T14:08:12.146Z,4.63
2018-04-13T14:10:38.873Z,4.13
2018-04-13T14:13:11.205Z,5.13
2018-04-13T14:15:37.901Z,4.53
2018-04-13T14:18:04.610Z,5.00
2018-04-13T14:20:31.113Z,4.53
2018-04-13T14:23:03.496Z,7.23
2018-04-13T14:25:30.170Z,5.90
2018-04-13T14:27:56.876Z,6.43
2018-04-13T14:33:12.004Z,17.43
2018-04-13T14:35:38.627Z,15.77
2018-04-13T14:38:05.358Z,10.47
2018-04-13T14:40:32.057Z,7.43
2018-04-13T14:42:59.778Z,10.80
2018-04-13T14:45:26.313Z,7.37
2018-04-13T14:47:52.954Z,9.40
2018-04-13T14:50:19.553Z,6.07
2018-04-13T14:52:49.540Z,6.50
2018-04-13T14:55:16.275Z,6.97
2018-04-13T14:57:43.356Z,7.60
2018-04-13T15:00:09.907Z,8.17
2018-04-13T15:02:40.176Z,9.40
2018-04-13T15:05:06.698Z,8.37
2018-04-13T15:07:33.262Z,7.57
2018-04-13T15:09:59.771Z,9.00
2018-04-13T15:12:26.465Z,7.27
2018-04-13T15:14:53.179Z,6.70
2018-04-13T15:17:19.790Z,7.73
2018-04-13T15:19:46.398Z,7.77
2018-04-13T15:22:16.901Z,6.47
2018-04-13T15:24:43.605Z,7.77
2018-04-13T15:27:10.254Z,7.33
2018-04-13T15:29:36.943Z,7.80
2018-04-13T15:32:03.574Z,8.97
2018-04-13T15:34:30.130Z,8.93
2018-04-13T15:36:56.843Z,8.90
2018-04-13T15:39:23.245Z,8.43
2018-04-13T15:41:49.619Z,9.43
2018-04-13T15:44:16.181Z,10.63
2018-04-13T15:46:42.762Z,10.73
2018-04-13T15:49:09.892Z,9.10
2018-04-13T15:51:36.600Z,9.50
2018-04-13T15:54:08.397Z,10.60
2018-04-13T15:56:35.060Z,12.23
2018-04-13T15:59:01.576Z,12.60
2018-04-13T16:01:28.053Z,12.10
2018-04-13T16:03:58.598Z,11.57
2018-04-13T16:06:25.230Z,13.70
2018-04-13T16:08:51.867Z,12.17
2018-04-13T16:11:18.510Z,12.83
2018-04-13T16:13:48.552Z,12.93
2018-04-13T16:16:15.220Z,13.00
2018-04-13T16:18:41.833Z,12.43
2018-04-13T16:21:08.468Z,13.63
2018-04-13T16:23:38.421Z,13.03
2018-04-13T16:26:05.073Z,13.57
2018-04-13T16:28:31.757Z,13.90
2018-04-13T16:30:58.413Z,19.17
2018-04-13T16:33:28.511Z,14.17
2018-04-13T16:35:55.745Z,11.47
2018-04-13T16:38:22.345Z,11.20
2018-04-13T16:40:48.840Z,10.30
2018-04-13T16:43:15.470Z,11.67
2018-04-13T16:45:42.170Z,11.53
2018-04-13T16:48:08.818Z,12.60
2018-04-13T16:50:35.499Z,12.00
2018-04-13T16:53:03.270Z,13.07
2018-04-13T16:55:29.982Z,13.13
2018-04-13T16:57:57.502Z,13.37
2018-04-13T17:00:24.190Z,13.53
2018-04-13T17:02:57.475Z,13.43
2018-04-13T17:05:24.116Z,12.60
2018-04-13T17:07:50.658Z,12.13
2018-04-13T17:10:18.693Z,13.30
2018-04-13T17:12:51.306Z,13.57
2018-04-13T17:15:18.063Z,14.83
2018-04-13T17:17:44.506Z,17.00
2018-04-13T17:20:11.448Z,16.43
2018-04-13T17:22:39.119Z,18.60
2018-04-13T17:25:05.803Z,18.70
2018-04-13T17:27:32.456Z,18.83
2018-04-13T17:29:59.012Z,20.50
2018-04-13T17:32:28.906Z,20.63
2018-04-13T17:34:55.476Z,20.60
2018-04-13T17:37:22.050Z,20.27
2018-04-13T17:39:48.688Z,26.23
2018-04-13T17:42:20.874Z,23.00
2018-04-13T17:44:48.197Z,24.80
2018-04-13T17:47:14.935Z,25.13
2018-04-13T17:49:41.665Z,23.90
2018-04-13T17:52:14.430Z,22.20
2018-04-13T17:54:41.070Z,22.73
2018-04-13T17:57:07.811Z,21.63
2018-04-13T17:59:34.469Z,24.17
2018-04-13T18:02:05.923Z,24.70
2018-04-13T18:04:32.607Z,23.43
2018-04-13T18:06:59.266Z,22.93
2018-04-13T18:09:25.938Z,22.70
2018-04-13T18:11:56.014Z,24.57
2018-04-13T18:14:22.591Z,24.17
2018-04-13T18:16:49.128Z,25.03
2018-04-13T18:19:15.695Z,24.13
2018-04-13T18:21:46.301Z,21.60
2018-04-13T18:24:12.915Z,23.83
2018-04-13T18:26:39.494Z,21.33
2018-04-13T18:29:06.086Z,20.03
2018-04-13T18:31:38.954Z,19.30
2018-04-13T18:34:05.560Z,21.83
2018-04-13T18:36:32.682Z,23.50
2018-04-13T18:38:59.210Z,25.23
2018-04-13T18:41:25.745Z,23.53
2018-04-13T18:43:52.373Z,27.80
2018-04-13T18:46:19.010Z,24.97
2018-04-13T18:48:46.531Z,24.63
2018-04-13T18:51:13.108Z,25.93
2018-04-13T18:53:46.590Z,26.20
2018-04-13T18:56:13.203Z,26.23
2018-04-13T18:58:39.801Z,26.70
2018-04-13T19:01:06.383Z,27.13
2018-04-13T19:03:34.142Z,27.33
2018-04-13T19:06:00.818Z,26.53
2018-04-13T19:08:27.466Z,27.77
2018-04-13T19:10:54.131Z,28.17
2018-04-13T19:13:21.051Z,29.67
2018-04-13T19:15:47.717Z,31.03
2018-04-13T19:18:14.315Z,31.73
2018-04-13T19:20:41.027Z,30.23
2018-04-13T19:23:10.958Z,31.37
2018-04-13T19:25:37.543Z,30.17
2018-04-13T19:28:04.109Z,29.70
2018-04-13T19:30:30.781Z,30.93
2018-04-13T19:33:01.006Z,33.33
2018-04-13T19:35:27.694Z,33.20
2018-04-13T19:37:54.214Z,34.07
2018-04-13T19:40:20.774Z,35.20
2018-04-13T19:42:51.175Z,35.57
2018-04-13T19:45:17.745Z,37.23
2018-04-13T19:47:44.327Z,37.30
2018-04-13T19:50:10.985Z,36.87
2018-04-13T19:52:41.337Z,38.77
2018-04-13T19:55:07.973Z,37.67
2018-04-13T19:57:34.614Z,35.50
2018-04-13T20:00:01.138Z,36.63
2018-04-13T20:02:28.990Z,31.87
2018-04-13T20:04:55.692Z,34.13
2018-04-13T20:07:23.321Z,32.37
2018-04-13T20:09:49.838Z,32.77
2018-04-13T20:12:20.336Z,37.07
2018-04-13T20:14:47.261Z,34.60
2018-04-13T20:17:14.014Z,38.77
2018-04-13T20:19:40.627Z,37.23
2018-04-13T20:22:13.439Z,36.03
2018-04-13T20:24:41.023Z,35.70
2018-04-13T20:27:08.173Z,36.60
2018-04-13T20:29:34.827Z,36.30
2018-04-13T20:32:06.135Z,37.63
2018-04-13T20:34:32.693Z,36.83
2018-04-13T20:36:59.203Z,38.93
2018-04-13T20:39:25.715Z,39.07
2018-04-13T20:41:56.138Z,37.37
2018-04-13T20:44:22.767Z,38.07
2018-04-13T20:46:49.299Z,38.33
2018-04-13T20:49:15.994Z,42.10
2018-04-13T20:51:46.226Z,42.23
2018-04-13T20:54:12.870Z,43.13
2018-04-13T20:56:39.470Z,44.50
2018-04-13T20:59:06.097Z,44.80
2018-04-13T21:01:33.739Z,39.43
2018-04-13T21:04:00.277Z,37.47
2018-04-13T21:06:26.795Z,38.37
2018-04-13T21:08:53.436Z,35.67
2018-04-13T21:11:30.433Z,36.73
2018-04-13T21:13:57.131Z,34.63
2018-04-13T21:16:24.258Z,33.37
2018-04-13T21:18:50.857Z,33.43
2018-04-13T21:21:18.657Z,32.83
2018-04-13T21:23:45.295Z,37.47
2018-04-13T21:26:11.946Z,34.53
2018-04-13T21:28:38.519Z,30.30
2018-04-13T21:31:10.816Z,31.27
2018-04-13T21:33:37.393Z,32.40
2018-04-13T21:36:04.055Z,30.00
2018-04-13T21:38:30.579Z,32.07
2018-04-13T21:40:57.185Z,31.20
2018-04-13T21:43:23.748Z,31.00
2018-04-13T21:45:50.327Z,30.47
2018-04-13T21:48:16.898Z,32.63
2018-04-13T21:50:43.458Z,31.50
2018-04-13T21:53:16.101Z,30.87
2018-04-13T21:55:42.682Z,31.67
2018-04-13T21:58:09.332Z,34.30
2018-04-13T22:00:35.938Z,40.53
2018-04-13T22:03:08.735Z,31.50
2018-04-13T22:05:35.362Z,29.60
2018-04-13T22:08:01.909Z,31.27
2018-04-13T22:10:28.480Z,33.50
2018-04-13T22:13:12.168Z,39.33
2018-04-13T22:15:38.605Z,33.07
2018-04-13T22:18:05.424Z,33.60
2018-04-13T22:20:32.101Z,41.00
2018-04-13T22:22:59.856Z,42.40
2018-04-13T22:25:26.414Z,38.33
2018-04-13T22:27:53.013Z,29.63
2018-04-13T22:30:19.584Z,27.53
2018-04-13T22:32:49.381Z,31.60
2018-04-13T22:35:16.063Z,33.53
2018-04-13T22:37:42.635Z,34.47
2018-04-13T22:40:09.297Z,38.07
2018-04-13T22:42:36.953Z,40.97
2018-04-13T22:45:03.493Z,42.50
2018-04-13T22:47:30.062Z,37.17
2018-04-13T22:49:56.689Z,38.67
2018-04-13T22:52:26.489Z,35.30
2018-04-13T22:54:53.130Z,35.67
2018-04-13T22:57:19.787Z,34.37
2018-04-13T22:59:46.412Z,37.17
2018-04-13T23:02:14.149Z,35.53
2018-04-13T23:04:40.884Z,36.37
2018-04-13T23:07:07.553Z,36.30
2018-04-13T23:09:34.271Z,38.40
2018-04-13T23:12:01.073Z,36.60
2018-04-13T23:14:27.747Z,40.30
2018-04-13T23:16:54.396Z,43.80
2018-04-13T23:19:21.141Z,40.30
2018-04-13T23:21:55.362Z,41.73
2018-04-13T23:24:22.029Z,41.73
2018-04-13T23:26:48.587Z,42.17
2018-04-13T23:29:15.205Z,39.87
2018-04-13T23:31:42.163Z,37.97
2018-04-13T23:34:08.802Z,33.40
2018-04-13T23:36:35.517Z,28.23
2018-04-13T23:39:02.199Z,27.87
2018-04-13T23:41:29.107Z,26.43
2018-04-13T23:43:55.794Z,27.23
2018-04-13T23:46:22.412Z,28.67
2018-04-13T23:48:48.982Z,28.00
2018-04-13T23:51:16.916Z,35.47
2018-04-13T23:53:43.631Z,34.27
2018-04-13T23:56:10.327Z,31.07
2018-04-13T23:58:36.940Z,27.20
